sensor_id;sensor_type;location;lat;lon;timestamp;P1;durP1;ratioP1;P2;durP2;ratioP2
23228;SDS011;11783;50.350;6.576;2024-02-14T00:00:19;4.75;;;2.08;;
23228;SDS011;11783;50.350;6.576;2024-02-14T00:02:45;4.20;;;2.10;;
23228;SDS011;11783;50.350;6.576;2024-02-14T00:05:14;4.65;;;2.15;;
23228;SDS011;11783;50.350;6.576;2024-02-14T00:07:40;4.90;;;2.00;;
23228;SDS011;11783;50.350;6.576;2024-02-14T00:10:05;3.50;;;1.85;;
23228;SDS011;11783;50.350;6.576;2024-02-14T00:12:32;5.28;;;2.10;;
23228;SDS011;11783;50.350;6.576;2024-02-14T00:14:58;7.03;;;2.17;;
23228;SDS011;11783;50.350;6.576;2024-02-14T00:17:23;5.95;;;2.13;;
23228;SDS011;11783;50.350;6.576;2024-02-14T00:19:49;4.68;;;2.08;;
23228;SDS011;11783;50.350;6.576;2024-02-14T00:22:14;6.28;;;2.20;;
23228;SDS011;11783;50.350;6.576;2024-02-14T00:24:41;6.32;;;2.00;;
23228;SDS011;11783;50.350;6.576;2024-02-14T00:27:06;4.95;;;1.80;;
23228;SDS011;11783;50.350;6.576;2024-02-14T00:29:32;6.68;;;1.98;;
23228;SDS011;11783;50.350;6.576;2024-02-14T00:31:59;5.88;;;2.03;;
23228;SDS011;11783;50.350;6.576;2024-02-14T00:34:25;6.68;;;2.10;;
23228;SDS011;11783;50.350;6.576;2024-02-14T00:36:50;5.22;;;2.08;;
23228;SDS011;11783;50.350;6.576;2024-02-14T00:39:16;4.75;;;2.03;;
23228;SDS011;11783;50.350;6.576;2024-02-14T00:41:41;4.40;;;1.60;;
23228;SDS011;11783;50.350;6.576;2024-02-14T00:44:07;4.00;;;1.83;;
23228;SDS011;11783;50.350;6.576;2024-02-14T00:46:32;5.78;;;1.90;;
23228;SDS011;11783;50.350;6.576;2024-02-14T00:48:57;6.82;;;2.10;;
23228;SDS011;11783;50.350;6.576;2024-02-14T00:51:23;5.05;;;1.90;;
23228;SDS011;11783;50.350;6.576;2024-02-14T00:53:48;4.25;;;1.75;;
23228;SDS011;11783;50.350;6.576;2024-02-14T00:56:14;5.88;;;1.85;;
23228;SDS011;11783;50.350;6.576;2024-02-14T00:58:39;4.75;;;1.80;;
23228;SDS011;11783;50.350;6.576;2024-02-14T01:01:05;4.25;;;2.00;;
23228;SDS011;11783;50.350;6.576;2024-02-14T01:03:30;5.47;;;1.83;;
23228;SDS011;11783;50.350;6.576;2024-02-14T01:05:56;4.63;;;1.75;;
23228;SDS011;11783;50.350;6.576;2024-02-14T01:08:21;5.45;;;1.98;;
23228;SDS011;11783;50.350;6.576;2024-02-14T01:10:47;4.32;;;1.70;;
23228;SDS011;11783;50.350;6.576;2024-02-14T01:13:14;5.07;;;2.20;;
23228;SDS011;11783;50.350;6.576;2024-02-14T01:15:40;7.00;;;2.35;;
23228;SDS011;11783;50.350;6.576;2024-02-14T01:18:06;8.52;;;2.63;;
23228;SDS011;11783;50.350;6.576;2024-02-14T01:20:32;4.57;;;2.42;;
23228;SDS011;11783;50.350;6.576;2024-02-14T01:22:57;5.15;;;2.20;;
23228;SDS011;11783;50.350;6.576;2024-02-14T01:25:22;7.65;;;2.63;;
23228;SDS011;11783;50.350;6.576;2024-02-14T01:27:48;6.00;;;2.30;;
23228;SDS011;11783;50.350;6.576;2024-02-14T01:30:14;5.32;;;2.30;;
23228;SDS011;11783;50.350;6.576;2024-02-14T01:32:39;5.63;;;2.40;;
23228;SDS011;11783;50.350;6.576;2024-02-14T01:35:05;5.82;;;2.53;;
23228;SDS011;11783;50.350;6.576;2024-02-14T01:37:31;7.25;;;2.72;;
23228;SDS011;11783;50.350;6.576;2024-02-14T01:39:56;7.00;;;2.50;;
23228;SDS011;11783;50.350;6.576;2024-02-14T01:42:21;7.22;;;2.40;;
23228;SDS011;11783;50.350;6.576;2024-02-14T01:44:47;6.65;;;2.80;;
23228;SDS011;11783;50.350;6.576;2024-02-14T01:47:13;5.25;;;2.45;;
23228;SDS011;11783;50.350;6.576;2024-02-14T01:49:59;6.50;;;2.78;;
23228;SDS011;11783;50.350;6.576;2024-02-14T01:52:26;6.68;;;2.85;;
23228;SDS011;11783;50.350;6.576;2024-02-14T01:54:51;5.00;;;2.42;;
23228;SDS011;11783;50.350;6.576;2024-02-14T01:57:20;5.95;;;2.40;;
23228;SDS011;11783;50.350;6.576;2024-02-14T01:59:46;5.43;;;2.45;;
23228;SDS011;11783;50.350;6.576;2024-02-14T02:02:13;8.15;;;2.72;;
23228;SDS011;11783;50.350;6.576;2024-02-14T02:04:39;4.72;;;2.35;;
23228;SDS011;11783;50.350;6.576;2024-02-14T02:07:04;8.80;;;2.33;;
23228;SDS011;11783;50.350;6.576;2024-02-14T02:09:30;4.78;;;2.47;;
23228;SDS011;11783;50.350;6.576;2024-02-14T02:11:56;6.60;;;2.88;;
23228;SDS011;11783;50.350;6.576;2024-02-14T02:14:22;7.45;;;2.75;;
23228;SDS011;11783;50.350;6.576;2024-02-14T02:16:47;6.30;;;2.30;;
23228;SDS011;11783;50.350;6.576;2024-02-14T02:19:14;5.82;;;2.55;;
23228;SDS011;11783;50.350;6.576;2024-02-14T02:21:41;4.07;;;1.90;;
23228;SDS011;11783;50.350;6.576;2024-02-14T02:24:11;4.90;;;2.17;;
23228;SDS011;11783;50.350;6.576;2024-02-14T02:26:36;5.28;;;1.80;;
23228;SDS011;11783;50.350;6.576;2024-02-14T02:29:02;3.55;;;1.70;;
23228;SDS011;11783;50.350;6.576;2024-02-14T02:31:27;3.92;;;1.83;;
23228;SDS011;11783;50.350;6.576;2024-02-14T02:33:53;3.45;;;1.95;;
23228;SDS011;11783;50.350;6.576;2024-02-14T02:36:18;3.92;;;2.00;;
23228;SDS011;11783;50.350;6.576;2024-02-14T02:38:43;2.88;;;1.83;;
23228;SDS011;11783;50.350;6.576;2024-02-14T02:41:09;4.30;;;1.90;;
23228;SDS011;11783;50.350;6.576;2024-02-14T02:43:34;7.63;;;2.30;;
23228;SDS011;11783;50.350;6.576;2024-02-14T02:46:00;4.70;;;2.38;;
23228;SDS011;11783;50.350;6.576;2024-02-14T02:48:26;4.28;;;2.42;;
23228;SDS011;11783;50.350;6.576;2024-02-14T02:50:51;5.30;;;2.70;;
23228;SDS011;11783;50.350;6.576;2024-02-14T02:53:17;4.75;;;2.63;;
23228;SDS011;11783;50.350;6.576;2024-02-14T02:55:43;4.80;;;2.17;;
23228;SDS011;11783;50.350;6.576;2024-02-14T02:58:09;4.22;;;2.45;;
23228;SDS011;11783;50.350;6.576;2024-02-14T03:00:35;6.65;;;3.17;;
23228;SDS011;11783;50.350;6.576;2024-02-14T03:03:00;5.15;;;2.67;;
23228;SDS011;11783;50.350;6.576;2024-02-14T03:05:27;5.30;;;3.00;;
23228;SDS011;11783;50.350;6.576;2024-02-14T03:07:53;4.75;;;2.85;;
23228;SDS011;11783;50.350;6.576;2024-02-14T03:10:22;5.88;;;2.92;;
23228;SDS011;11783;50.350;6.576;2024-02-14T03:12:48;5.53;;;2.70;;
23228;SDS011;11783;50.350;6.576;2024-02-14T03:15:14;6.47;;;2.95;;
23228;SDS011;11783;50.350;6.576;2024-02-14T03:17:39;7.50;;;3.10;;
23228;SDS011;11783;50.350;6.576;2024-02-14T03:20:05;5.20;;;2.85;;
23228;SDS011;11783;50.350;6.576;2024-02-14T03:22:42;6.10;;;2.85;;
23228;SDS011;11783;50.350;6.576;2024-02-14T03:25:12;5.85;;;3.03;;
23228;SDS011;11783;50.350;6.576;2024-02-14T03:27:48;4.70;;;2.85;;
23228;SDS011;11783;50.350;6.576;2024-02-14T03:30:18;5.63;;;3.17;;
23228;SDS011;11783;50.350;6.576;2024-02-14T03:32:43;5.18;;;2.88;;
23228;SDS011;11783;50.350;6.576;2024-02-14T03:35:09;4.85;;;2.83;;
23228;SDS011;11783;50.350;6.576;2024-02-14T03:37:37;7.82;;;3.33;;
23228;SDS011;11783;50.350;6.576;2024-02-14T03:40:04;6.90;;;3.10;;
23228;SDS011;11783;50.350;6.576;2024-02-14T03:42:30;7.20;;;3.35;;
23228;SDS011;11783;50.350;6.576;2024-02-14T03:44:56;6.35;;;3.00;;
23228;SDS011;11783;50.350;6.576;2024-02-14T03:47:27;7.28;;;3.30;;
23228;SDS011;11783;50.350;6.576;2024-02-14T03:49:54;6.60;;;3.38;;
23228;SDS011;11783;50.350;6.576;2024-02-14T03:52:20;6.80;;;3.30;;
23228;SDS011;11783;50.350;6.576;2024-02-14T03:54:47;4.65;;;2.90;;
23228;SDS011;11783;50.350;6.576;2024-02-14T03:57:13;5.93;;;3.28;;
23228;SDS011;11783;50.350;6.576;2024-02-14T03:59:38;5.97;;;3.30;;
23228;SDS011;11783;50.350;6.576;2024-02-14T04:02:04;4.97;;;3.30;;
23228;SDS011;11783;50.350;6.576;2024-02-14T04:04:32;9.43;;;3.38;;
23228;SDS011;11783;50.350;6.576;2024-02-14T04:06:58;7.60;;;3.17;;
23228;SDS011;11783;50.350;6.576;2024-02-14T04:09:26;6.68;;;3.60;;
23228;SDS011;11783;50.350;6.576;2024-02-14T04:11:51;6.60;;;3.40;;
23228;SDS011;11783;50.350;6.576;2024-02-14T04:14:16;9.75;;;3.70;;
23228;SDS011;11783;50.350;6.576;2024-02-14T04:16:42;7.10;;;3.60;;
23228;SDS011;11783;50.350;6.576;2024-02-14T04:19:07;6.47;;;3.38;;
23228;SDS011;11783;50.350;6.576;2024-02-14T04:21:35;7.90;;;4.30;;
23228;SDS011;11783;50.350;6.576;2024-02-14T04:24:03;8.10;;;4.00;;
23228;SDS011;11783;50.350;6.576;2024-02-14T04:26:28;6.13;;;3.50;;
23228;SDS011;11783;50.350;6.576;2024-02-14T04:28:54;9.13;;;4.32;;
23228;SDS011;11783;50.350;6.576;2024-02-14T04:31:19;8.50;;;4.28;;
23228;SDS011;11783;50.350;6.576;2024-02-14T04:33:45;7.70;;;4.43;;
23228;SDS011;11783;50.350;6.576;2024-02-14T04:36:16;6.63;;;4.20;;
23228;SDS011;11783;50.350;6.576;2024-02-14T04:38:46;7.55;;;4.30;;
23228;SDS011;11783;50.350;6.576;2024-02-14T04:41:12;7.70;;;4.13;;
23228;SDS011;11783;50.350;6.576;2024-02-14T04:43:38;7.35;;;3.70;;
23228;SDS011;11783;50.350;6.576;2024-02-14T04:46:04;5.75;;;3.17;;
23228;SDS011;11783;50.350;6.576;2024-02-14T04:48:35;7.32;;;3.03;;
23228;SDS011;11783;50.350;6.576;2024-02-14T04:51:02;5.05;;;3.28;;
23228;SDS011;11783;50.350;6.576;2024-02-14T04:53:27;5.32;;;3.10;;
23228;SDS011;11783;50.350;6.576;2024-02-14T04:55:53;6.78;;;2.88;;
23228;SDS011;11783;50.350;6.576;2024-02-14T04:58:19;5.60;;;2.92;;
23228;SDS011;11783;50.350;6.576;2024-02-14T05:00:45;4.53;;;2.80;;
23228;SDS011;11783;50.350;6.576;2024-02-14T05:03:10;4.60;;;2.58;;
23228;SDS011;11783;50.350;6.576;2024-02-14T05:05:36;3.75;;;2.30;;
23228;SDS011;11783;50.350;6.576;2024-02-14T05:08:01;3.85;;;2.15;;
23228;SDS011;11783;50.350;6.576;2024-02-14T05:10:27;4.47;;;2.50;;
23228;SDS011;11783;50.350;6.576;2024-02-14T05:12:53;3.88;;;2.13;;
23228;SDS011;11783;50.350;6.576;2024-02-14T05:15:19;3.30;;;2.17;;
23228;SDS011;11783;50.350;6.576;2024-02-14T05:17:45;3.63;;;2.20;;
23228;SDS011;11783;50.350;6.576;2024-02-14T05:20:10;4.47;;;2.40;;
23228;SDS011;11783;50.350;6.576;2024-02-14T05:22:36;3.72;;;2.20;;
23228;SDS011;11783;50.350;6.576;2024-02-14T05:25:03;3.63;;;1.90;;
23228;SDS011;11783;50.350;6.576;2024-02-14T05:27:29;4.38;;;1.70;;
23228;SDS011;11783;50.350;6.576;2024-02-14T05:29:55;3.65;;;1.80;;
23228;SDS011;11783;50.350;6.576;2024-02-14T05:32:21;3.15;;;1.77;;
23228;SDS011;11783;50.350;6.576;2024-02-14T05:34:46;3.58;;;2.10;;
23228;SDS011;11783;50.350;6.576;2024-02-14T05:37:11;4.18;;;1.77;;
23228;SDS011;11783;50.350;6.576;2024-02-14T05:39:38;3.85;;;1.70;;
23228;SDS011;11783;50.350;6.576;2024-02-14T05:42:04;3.53;;;1.55;;
23228;SDS011;11783;50.350;6.576;2024-02-14T05:44:30;3.00;;;2.05;;
23228;SDS011;11783;50.350;6.576;2024-02-14T05:46:56;3.33;;;2.03;;
23228;SDS011;11783;50.350;6.576;2024-02-14T05:49:21;3.13;;;1.73;;
23228;SDS011;11783;50.350;6.576;2024-02-14T05:51:47;6.03;;;2.20;;
23228;SDS011;11783;50.350;6.576;2024-02-14T05:54:13;3.65;;;2.00;;
23228;SDS011;11783;50.350;6.576;2024-02-14T05:56:38;4.22;;;2.17;;
23228;SDS011;11783;50.350;6.576;2024-02-14T05:59:03;3.78;;;1.95;;
23228;SDS011;11783;50.350;6.576;2024-02-14T06:01:29;4.30;;;2.10;;
23228;SDS011;11783;50.350;6.576;2024-02-14T06:03:55;3.47;;;1.80;;
23228;SDS011;11783;50.350;6.576;2024-02-14T06:06:20;3.50;;;1.88;;
23228;SDS011;11783;50.350;6.576;2024-02-14T06:08:46;4.93;;;1.50;;
23228;SDS011;11783;50.350;6.576;2024-02-14T06:11:11;3.63;;;2.00;;
23228;SDS011;11783;50.350;6.576;2024-02-14T06:13:39;2.80;;;1.67;;
23228;SDS011;11783;50.350;6.576;2024-02-14T06:16:04;3.90;;;1.90;;
23228;SDS011;11783;50.350;6.576;2024-02-14T06:18:30;3.22;;;1.67;;
23228;SDS011;11783;50.350;6.576;2024-02-14T06:20:56;4.40;;;2.17;;
23228;SDS011;11783;50.350;6.576;2024-02-14T06:23:21;2.80;;;1.60;;
23228;SDS011;11783;50.350;6.576;2024-02-14T06:25:46;2.97;;;1.70;;
23228;SDS011;11783;50.350;6.576;2024-02-14T06:28:12;3.55;;;1.70;;
23228;SDS011;11783;50.350;6.576;2024-02-14T06:30:37;3.08;;;1.77;;
23228;SDS011;11783;50.350;6.576;2024-02-14T06:33:02;3.15;;;1.80;;
23228;SDS011;11783;50.350;6.576;2024-02-14T06:35:28;3.70;;;1.65;;
23228;SDS011;11783;50.350;6.576;2024-02-14T06:37:54;2.78;;;1.58;;
23228;SDS011;11783;50.350;6.576;2024-02-14T06:40:19;4.03;;;1.55;;
23228;SDS011;11783;50.350;6.576;2024-02-14T06:42:45;3.00;;;1.60;;
23228;SDS011;11783;50.350;6.576;2024-02-14T06:45:10;3.53;;;1.90;;
23228;SDS011;11783;50.350;6.576;2024-02-14T06:47:36;4.63;;;2.15;;
23228;SDS011;11783;50.350;6.576;2024-02-14T06:50:01;3.67;;;2.10;;
23228;SDS011;11783;50.350;6.576;2024-02-14T06:52:27;4.05;;;1.95;;
23228;SDS011;11783;50.350;6.576;2024-02-14T06:54:52;4.45;;;2.55;;
23228;SDS011;11783;50.350;6.576;2024-02-14T06:57:17;3.83;;;2.28;;
23228;SDS011;11783;50.350;6.576;2024-02-14T06:59:43;4.45;;;2.38;;
23228;SDS011;11783;50.350;6.576;2024-02-14T07:02:08;4.25;;;2.20;;
23228;SDS011;11783;50.350;6.576;2024-02-14T07:04:34;4.55;;;2.30;;
23228;SDS011;11783;50.350;6.576;2024-02-14T07:06:59;4.88;;;1.95;;
23228;SDS011;11783;50.350;6.576;2024-02-14T07:09:25;4.90;;;2.22;;
23228;SDS011;11783;50.350;6.576;2024-02-14T07:11:51;3.83;;;1.73;;
23228;SDS011;11783;50.350;6.576;2024-02-14T07:14:18;3.80;;;2.30;;
23228;SDS011;11783;50.350;6.576;2024-02-14T07:16:44;4.68;;;2.65;;
23228;SDS011;11783;50.350;6.576;2024-02-14T07:19:09;5.45;;;2.28;;
23228;SDS011;11783;50.350;6.576;2024-02-14T07:21:35;5.53;;;2.42;;
23228;SDS011;11783;50.350;6.576;2024-02-14T07:24:02;5.07;;;2.65;;
23228;SDS011;11783;50.350;6.576;2024-02-14T07:26:29;4.18;;;2.53;;
23228;SDS011;11783;50.350;6.576;2024-02-14T07:28:54;3.47;;;2.20;;
23228;SDS011;11783;50.350;6.576;2024-02-14T07:31:20;4.10;;;2.70;;
23228;SDS011;11783;50.350;6.576;2024-02-14T07:33:45;4.30;;;2.50;;
23228;SDS011;11783;50.350;6.576;2024-02-14T07:36:12;4.95;;;2.50;;
23228;SDS011;11783;50.350;6.576;2024-02-14T07:38:38;4.88;;;2.80;;
23228;SDS011;11783;50.350;6.576;2024-02-14T07:41:03;5.53;;;2.97;;
23228;SDS011;11783;50.350;6.576;2024-02-14T07:43:28;4.75;;;2.38;;
23228;SDS011;11783;50.350;6.576;2024-02-14T07:45:54;5.18;;;2.97;;
23228;SDS011;11783;50.350;6.576;2024-02-14T07:48:19;4.57;;;2.88;;
23228;SDS011;11783;50.350;6.576;2024-02-14T07:50:45;6.18;;;2.95;;
23228;SDS011;11783;50.350;6.576;2024-02-14T07:53:10;5.53;;;2.72;;
23228;SDS011;11783;50.350;6.576;2024-02-14T07:55:36;5.43;;;2.70;;
23228;SDS011;11783;50.350;6.576;2024-02-14T07:58:01;5.22;;;2.88;;
23228;SDS011;11783;50.350;6.576;2024-02-14T08:00:26;4.35;;;2.88;;
23228;SDS011;11783;50.350;6.576;2024-02-14T08:02:52;4.72;;;2.80;;
23228;SDS011;11783;50.350;6.576;2024-02-14T08:05:17;4.70;;;2.90;;
23228;SDS011;11783;50.350;6.576;2024-02-14T08:07:44;3.83;;;2.60;;
23228;SDS011;11783;50.350;6.576;2024-02-14T08:10:11;4.30;;;2.55;;
23228;SDS011;11783;50.350;6.576;2024-02-14T08:12:36;3.40;;;2.05;;
23228;SDS011;11783;50.350;6.576;2024-02-14T08:15:02;3.55;;;2.05;;
23228;SDS011;11783;50.350;6.576;2024-02-14T08:17:31;3.08;;;1.83;;
23228;SDS011;11783;50.350;6.576;2024-02-14T08:19:56;3.03;;;1.85;;
23228;SDS011;11783;50.350;6.576;2024-02-14T08:22:22;3.78;;;1.70;;
23228;SDS011;11783;50.350;6.576;2024-02-14T08:24:47;2.80;;;1.60;;
23228;SDS011;11783;50.350;6.576;2024-02-14T08:27:12;4.45;;;1.63;;
23228;SDS011;11783;50.350;6.576;2024-02-14T08:29:38;3.45;;;1.48;;
23228;SDS011;11783;50.350;6.576;2024-02-14T08:32:03;3.38;;;1.60;;
23228;SDS011;11783;50.350;6.576;2024-02-14T08:34:30;3.13;;;1.67;;
23228;SDS011;11783;50.350;6.576;2024-02-14T08:36:55;3.00;;;1.60;;
23228;SDS011;11783;50.350;6.576;2024-02-14T08:39:20;2.97;;;1.48;;
23228;SDS011;11783;50.350;6.576;2024-02-14T08:41:46;2.85;;;1.40;;
23228;SDS011;11783;50.350;6.576;2024-02-14T08:44:12;2.90;;;1.30;;
23228;SDS011;11783;50.350;6.576;2024-02-14T08:46:38;2.42;;;1.35;;
23228;SDS011;11783;50.350;6.576;2024-02-14T08:49:04;1.90;;;1.02;;
23228;SDS011;11783;50.350;6.576;2024-02-14T08:51:34;2.22;;;1.10;;
23228;SDS011;11783;50.350;6.576;2024-02-14T08:54:00;2.47;;;1.33;;
23228;SDS011;11783;50.350;6.576;2024-02-14T08:56:28;3.63;;;1.75;;
23228;SDS011;11783;50.350;6.576;2024-02-14T08:58:53;3.00;;;1.60;;
23228;SDS011;11783;50.350;6.576;2024-02-14T09:01:18;3.05;;;1.60;;
23228;SDS011;11783;50.350;6.576;2024-02-14T09:03:46;4.82;;;1.67;;
23228;SDS011;11783;50.350;6.576;2024-02-14T09:06:13;3.28;;;1.48;;
23228;SDS011;11783;50.350;6.576;2024-02-14T09:08:39;3.83;;;1.83;;
23228;SDS011;11783;50.350;6.576;2024-02-14T09:11:06;3.10;;;1.52;;
23228;SDS011;11783;50.350;6.576;2024-02-14T09:13:31;3.47;;;1.58;;
23228;SDS011;11783;50.350;6.576;2024-02-14T09:15:56;3.35;;;1.50;;
23228;SDS011;11783;50.350;6.576;2024-02-14T09:18:22;2.90;;;1.40;;
23228;SDS011;11783;50.350;6.576;2024-02-14T09:20:49;3.40;;;1.40;;
23228;SDS011;11783;50.350;6.576;2024-02-14T09:23:15;2.92;;;1.48;;
23228;SDS011;11783;50.350;6.576;2024-02-14T09:25:45;2.30;;;1.30;;
23228;SDS011;11783;50.350;6.576;2024-02-14T09:28:12;2.22;;;1.25;;
23228;SDS011;11783;50.350;6.576;2024-02-14T09:30:39;2.65;;;1.30;;
23228;SDS011;11783;50.350;6.576;2024-02-14T09:33:04;2.40;;;1.13;;
23228;SDS011;11783;50.350;6.576;2024-02-14T09:35:30;2.00;;;1.15;;
23228;SDS011;11783;50.350;6.576;2024-02-14T09:37:55;4.60;;;1.30;;
23228;SDS011;11783;50.350;6.576;2024-02-14T09:40:21;1.98;;;1.10;;
23228;SDS011;11783;50.350;6.576;2024-02-14T09:42:55;5.00;;;1.50;;
23228;SDS011;11783;50.350;6.576;2024-02-14T09:45:25;3.33;;;1.50;;
23228;SDS011;11783;50.350;6.576;2024-02-14T09:47:55;3.75;;;1.90;;
23228;SDS011;11783;50.350;6.576;2024-02-14T09:50:21;4.03;;;1.92;;
23228;SDS011;11783;50.350;6.576;2024-02-14T09:52:49;3.20;;;2.03;;
23228;SDS011;11783;50.350;6.576;2024-02-14T09:55:17;4.65;;;2.13;;
23228;SDS011;11783;50.350;6.576;2024-02-14T09:57:43;4.20;;;2.50;;
23228;SDS011;11783;50.350;6.576;2024-02-14T10:00:12;4.70;;;2.22;;
23228;SDS011;11783;50.350;6.576;2024-02-14T10:02:41;4.15;;;2.10;;
23228;SDS011;11783;50.350;6.576;2024-02-14T10:05:06;4.57;;;2.00;;
23228;SDS011;11783;50.350;6.576;2024-02-14T10:07:41;4.30;;;2.25;;
23228;SDS011;11783;50.350;6.576;2024-02-14T10:10:07;5.22;;;2.58;;
23228;SDS011;11783;50.350;6.576;2024-02-14T10:12:33;3.50;;;1.90;;
23228;SDS011;11783;50.350;6.576;2024-02-14T10:14:58;5.05;;;1.95;;
23228;SDS011;11783;50.350;6.576;2024-02-14T10:17:24;4.88;;;2.50;;
23228;SDS011;11783;50.350;6.576;2024-02-14T10:19:56;4.72;;;2.08;;
23228;SDS011;11783;50.350;6.576;2024-02-14T10:22:36;2.85;;;1.65;;
23228;SDS011;11783;50.350;6.576;2024-02-14T10:25:03;3.70;;;1.77;;
23228;SDS011;11783;50.350;6.576;2024-02-14T10:27:33;3.50;;;1.83;;
23228;SDS011;11783;50.350;6.576;2024-02-14T10:30:04;3.63;;;2.00;;
23228;SDS011;11783;50.350;6.576;2024-02-14T10:32:37;2.92;;;1.67;;
23228;SDS011;11783;50.350;6.576;2024-02-14T10:35:05;3.55;;;1.35;;
23228;SDS011;11783;50.350;6.576;2024-02-14T10:37:34;2.78;;;1.40;;
23228;SDS011;11783;50.350;6.576;2024-02-14T10:40:01;2.72;;;1.50;;
23228;SDS011;11783;50.350;6.576;2024-02-14T10:42:28;3.50;;;1.70;;
23228;SDS011;11783;50.350;6.576;2024-02-14T10:44:54;4.53;;;1.50;;
23228;SDS011;11783;50.350;6.576;2024-02-14T10:47:20;3.17;;;1.70;;
23228;SDS011;11783;50.350;6.576;2024-02-14T10:49:50;3.33;;;1.60;;
23228;SDS011;11783;50.350;6.576;2024-02-14T10:52:17;3.75;;;1.50;;
23228;SDS011;11783;50.350;6.576;2024-02-14T10:54:43;2.72;;;1.30;;
23228;SDS011;11783;50.350;6.576;2024-02-14T10:57:21;2.85;;;1.42;;
23228;SDS011;11783;50.350;6.576;2024-02-14T10:59:49;2.42;;;1.33;;
23228;SDS011;11783;50.350;6.576;2024-02-14T11:02:16;2.97;;;1.50;;
23228;SDS011;11783;50.350;6.576;2024-02-14T11:04:43;3.05;;;1.30;;
23228;SDS011;11783;50.350;6.576;2024-02-14T11:07:09;2.53;;;1.20;;
23228;SDS011;11783;50.350;6.576;2024-02-14T11:09:38;2.58;;;1.20;;
23228;SDS011;11783;50.350;6.576;2024-02-14T11:12:08;2.60;;;1.48;;
23228;SDS011;11783;50.350;6.576;2024-02-14T11:14:34;2.45;;;1.30;;
23228;SDS011;11783;50.350;6.576;2024-02-14T11:17:09;3.03;;;1.40;;
23228;SDS011;11783;50.350;6.576;2024-02-14T11:19:34;3.67;;;1.50;;
23228;SDS011;11783;50.350;6.576;2024-02-14T11:22:10;2.90;;;1.40;;
23228;SDS011;11783;50.350;6.576;2024-02-14T11:24:45;2.35;;;1.10;;
23228;SDS011;11783;50.350;6.576;2024-02-14T11:27:11;2.60;;;1.25;;
23228;SDS011;11783;50.350;6.576;2024-02-14T11:29:38;2.17;;;1.23;;
23228;SDS011;11783;50.350;6.576;2024-02-14T11:32:06;2.72;;;1.20;;
23228;SDS011;11783;50.350;6.576;2024-02-14T11:34:34;3.50;;;1.35;;
23228;SDS011;11783;50.350;6.576;2024-02-14T11:37:00;2.75;;;1.50;;
23228;SDS011;11783;50.350;6.576;2024-02-14T11:39:25;2.63;;;1.00;;
23228;SDS011;11783;50.350;6.576;2024-02-14T11:41:51;2.20;;;1.10;;
23228;SDS011;11783;50.350;6.576;2024-02-14T11:44:18;2.55;;;1.27;;
23228;SDS011;11783;50.350;6.576;2024-02-14T11:46:47;2.58;;;1.40;;
23228;SDS011;11783;50.350;6.576;2024-02-14T11:49:12;2.85;;;1.50;;
23228;SDS011;11783;50.350;6.576;2024-02-14T11:51:38;3.70;;;1.80;;
23228;SDS011;11783;50.350;6.576;2024-02-14T11:54:04;3.30;;;1.80;;
23228;SDS011;11783;50.350;6.576;2024-02-14T11:56:32;4.18;;;2.20;;
23228;SDS011;11783;50.350;6.576;2024-02-14T11:59:01;5.13;;;2.50;;
23228;SDS011;11783;50.350;6.576;2024-02-14T12:01:34;4.38;;;2.47;;
23228;SDS011;11783;50.350;6.576;2024-02-14T12:04:02;4.18;;;2.30;;
23228;SDS011;11783;50.350;6.576;2024-02-14T12:06:29;4.72;;;2.40;;
23228;SDS011;11783;50.350;6.576;2024-02-14T12:09:03;4.15;;;2.67;;
23228;SDS011;11783;50.350;6.576;2024-02-14T12:11:37;4.22;;;2.40;;
23228;SDS011;11783;50.350;6.576;2024-02-14T12:14:08;6.03;;;2.95;;
23228;SDS011;11783;50.350;6.576;2024-02-14T12:16:35;3.93;;;2.40;;
23228;SDS011;11783;50.350;6.576;2024-02-14T12:21:35;4.20;;;2.35;;
23228;SDS011;11783;50.350;6.576;2024-02-14T12:24:01;4.07;;;2.40;;
23228;SDS011;11783;50.350;6.576;2024-02-14T12:26:27;4.13;;;2.53;;
23228;SDS011;11783;50.350;6.576;2024-02-14T12:28:52;5.80;;;2.42;;
23228;SDS011;11783;50.350;6.576;2024-02-14T12:31:21;4.18;;;2.80;;
23228;SDS011;11783;50.350;6.576;2024-02-14T12:33:48;4.75;;;2.70;;
23228;SDS011;11783;50.350;6.576;2024-02-14T12:36:14;4.40;;;2.40;;
23228;SDS011;11783;50.350;6.576;2024-02-14T12:38:39;4.22;;;2.40;;
23228;SDS011;11783;50.350;6.576;2024-02-14T12:41:05;4.90;;;2.30;;
23228;SDS011;11783;50.350;6.576;2024-02-14T12:43:31;4.28;;;2.28;;
23228;SDS011;11783;50.350;6.576;2024-02-14T12:45:56;4.22;;;2.20;;
23228;SDS011;11783;50.350;6.576;2024-02-14T12:48:23;5.18;;;2.30;;
23228;SDS011;11783;50.350;6.576;2024-02-14T12:50:52;3.78;;;2.30;;
23228;SDS011;11783;50.350;6.576;2024-02-14T12:53:18;3.60;;;1.90;;
23228;SDS011;11783;50.350;6.576;2024-02-14T12:55:45;3.50;;;1.75;;
23228;SDS011;11783;50.350;6.576;2024-02-14T12:58:11;3.15;;;1.80;;
23228;SDS011;11783;50.350;6.576;2024-02-14T13:00:37;3.28;;;1.60;;
23228;SDS011;11783;50.350;6.576;2024-02-14T13:03:03;2.60;;;1.25;;
23228;SDS011;11783;50.350;6.576;2024-02-14T13:05:29;2.38;;;1.33;;
23228;SDS011;11783;50.350;6.576;2024-02-14T13:07:55;2.17;;;1.20;;
23228;SDS011;11783;50.350;6.576;2024-02-14T13:10:20;1.90;;;1.10;;
23228;SDS011;11783;50.350;6.576;2024-02-14T13:12:46;1.92;;;1.10;;
23228;SDS011;11783;50.350;6.576;2024-02-14T13:15:12;1.80;;;0.95;;
23228;SDS011;11783;50.350;6.576;2024-02-14T13:17:37;1.95;;;1.10;;
23228;SDS011;11783;50.350;6.576;2024-02-14T13:20:03;2.15;;;1.05;;
23228;SDS011;11783;50.350;6.576;2024-02-14T13:22:28;1.65;;;0.85;;
23228;SDS011;11783;50.350;6.576;2024-02-14T13:24:54;2.63;;;1.17;;
23228;SDS011;11783;50.350;6.576;2024-02-14T13:27:20;2.45;;;0.98;;
23228;SDS011;11783;50.350;6.576;2024-02-14T13:29:48;3.40;;;1.00;;
23228;SDS011;11783;50.350;6.576;2024-02-14T13:32:14;1.25;;;0.73;;
23228;SDS011;11783;50.350;6.576;2024-02-14T13:34:40;3.00;;;1.08;;
23228;SDS011;11783;50.350;6.576;2024-02-14T13:37:05;1.85;;;0.80;;
23228;SDS011;11783;50.350;6.576;2024-02-14T13:39:31;2.05;;;1.05;;
23228;SDS011;11783;50.350;6.576;2024-02-14T13:41:57;1.85;;;0.85;;
23228;SDS011;11783;50.350;6.576;2024-02-14T13:44:24;1.70;;;0.80;;
23228;SDS011;11783;50.350;6.576;2024-02-14T13:46:50;1.77;;;0.95;;
23228;SDS011;11783;50.350;6.576;2024-02-14T13:49:19;2.90;;;0.90;;
23228;SDS011;11783;50.350;6.576;2024-02-14T13:51:48;0.80;;;0.57;;
23228;SDS011;11783;50.350;6.576;2024-02-14T13:54:17;1.17;;;0.68;;
23228;SDS011;11783;50.350;6.576;2024-02-14T13:56:46;0.95;;;0.50;;
23228;SDS011;11783;50.350;6.576;2024-02-14T13:59:13;0.85;;;0.57;;
23228;SDS011;11783;50.350;6.576;2024-02-14T14:01:40;0.88;;;0.52;;
23228;SDS011;11783;50.350;6.576;2024-02-14T14:04:06;0.77;;;0.52;;
23228;SDS011;11783;50.350;6.576;2024-02-14T14:06:31;1.02;;;0.50;;
23228;SDS011;11783;50.350;6.576;2024-02-14T14:08:57;0.82;;;0.55;;
23228;SDS011;11783;50.350;6.576;2024-02-14T14:11:22;0.82;;;0.50;;
23228;SDS011;11783;50.350;6.576;2024-02-14T14:13:48;1.20;;;0.60;;
23228;SDS011;11783;50.350;6.576;2024-02-14T14:16:14;1.55;;;0.73;;
23228;SDS011;11783;50.350;6.576;2024-02-14T14:18:39;1.33;;;0.70;;
23228;SDS011;11783;50.350;6.576;2024-02-14T14:21:05;0.60;;;0.50;;
23228;SDS011;11783;50.350;6.576;2024-02-14T14:23:30;1.52;;;0.50;;
23228;SDS011;11783;50.350;6.576;2024-02-14T14:25:57;0.68;;;0.50;;
23228;SDS011;11783;50.350;6.576;2024-02-14T14:28:23;0.38;;;0.38;;
23228;SDS011;11783;50.350;6.576;2024-02-14T14:30:59;0.82;;;0.40;;
23228;SDS011;11783;50.350;6.576;2024-02-14T14:33:26;0.73;;;0.45;;
23228;SDS011;11783;50.350;6.576;2024-02-14T14:35:52;0.73;;;0.40;;
23228;SDS011;11783;50.350;6.576;2024-02-14T14:38:18;1.00;;;0.50;;
23228;SDS011;11783;50.350;6.576;2024-02-14T14:40:44;1.00;;;0.52;;
23228;SDS011;11783;50.350;6.576;2024-02-14T14:43:13;0.88;;;0.50;;
23228;SDS011;11783;50.350;6.576;2024-02-14T14:45:38;1.02;;;0.50;;